sensor_id;sensor_type;location;lat;lon;timestamp;pressure;altitude;pressure_sealevel;temperature;humidity
9839;BME280;4958;48.150;11.506;2022-10-14T00:01:53;95819.81;;;14.79;99.54
9839;BME280;4958;48.150;11.506;2022-10-14T00:04:19;95823.78;;;14.82;99.36
9839;BME280;4958;48.150;11.506;2022-10-14T00:06:46;95816.63;;;14.84;100.00
9839;BME280;4958;48.150;11.506;2022-10-14T00:09:12;95811.06;;;14.80;100.00
9839;BME280;4958;48.150;11.506;2022-10-14T00:11:39;95823.03;;;14.81;99.74
9839;BME280;4958;48.150;11.506;2022-10-14T00:14:10;95808.22;;;14.82;99.52
9839;BME280;4958;48.150;11.506;2022-10-14T00:16:39;95808.47;;;14.80;99.83
9839;BME280;4958;48.150;11.506;2022-10-14T00:19:06;95821.41;;;14.80;100.00
9839;BME280;4958;48.150;11.506;2022-10-14T00:21:33;95815.25;;;14.81;100.00
9839;BME280;4958;48.150;11.506;2022-10-14T00:24:01;95819.00;;;14.85;99.33
9839;BME280;4958;48.150;11.506;2022-10-14T00:26:29;95817.03;;;14.88;99.50
9839;BME280;4958;48.150;11.506;2022-10-14T00:28:57;95822.22;;;14.88;99.31
9839;BME280;4958;48.150;11.506;2022-10-14T00:31:25;95823.81;;;14.89;99.21
9839;BME280;4958;48.150;11.506;2022-10-14T00:33:51;95819.81;;;14.86;98.88
9839;BME280;4958;48.150;11.506;2022-10-14T00:36:20;95820.19;;;14.83;99.39
9839;BME280;4958;48.150;11.506;2022-10-14T00:38:47;95816.00;;;14.82;99.47
9839;BME280;4958;48.150;11.506;2022-10-14T00:41:16;95822.41;;;14.86;99.54
9839;BME280;4958;48.150;11.506;2022-10-14T00:43:54;95815.22;;;14.88;98.67
9839;BME280;4958;48.150;11.506;2022-10-14T00:46:21;95814.03;;;14.84;99.52
9839;BME280;4958;48.150;11.506;2022-10-14T00:48:50;95811.06;;;14.80;99.56
9839;BME280;4958;48.150;11.506;2022-10-14T00:51:17;95809.25;;;14.81;99.60
9839;BME280;4958;48.150;11.506;2022-10-14T00:53:44;95808.22;;;14.82;99.41
9839;BME280;4958;48.150;11.506;2022-10-14T00:56:14;95813.41;;;14.82;99.98
9839;BME280;4958;48.150;11.506;2022-10-14T00:58:42;95808.03;;;14.83;99.96
9839;BME280;4958;48.150;11.506;2022-10-14T01:01:10;95810.44;;;14.85;100.00
9839;BME280;4958;48.150;11.506;2022-10-14T01:03:36;95807.25;;;14.83;100.00
9839;BME280;4958;48.150;11.506;2022-10-14T01:06:12;95804.66;;;14.76;100.00
9839;BME280;4958;48.150;11.506;2022-10-14T01:08:46;95806.22;;;14.71;99.41
9839;BME280;4958;48.150;11.506;2022-10-14T01:11:16;95808.25;;;14.75;99.66
9839;BME280;4958;48.150;11.506;2022-10-14T01:13:54;95817.63;;;14.76;98.77
9839;BME280;4958;48.150;11.506;2022-10-14T01:16:30;95810.03;;;14.75;98.76
9839;BME280;4958;48.150;11.506;2022-10-14T01:19:12;95813.00;;;14.72;98.04
9839;BME280;4958;48.150;11.506;2022-10-14T01:21:43;95812.59;;;14.68;97.54
9839;BME280;4958;48.150;11.506;2022-10-14T01:24:25;95810.19;;;14.54;97.67
9839;BME280;4958;48.150;11.506;2022-10-14T01:27:14;95801.97;;;14.43;98.33
9839;BME280;4958;48.150;11.506;2022-10-14T01:30:14;95812.09;;;14.38;99.38
9839;BME280;4958;48.150;11.506;2022-10-14T01:32:51;95806.31;;;14.36;99.83
9839;BME280;4958;48.150;11.506;2022-10-14T01:35:30;95807.88;;;14.31;100.00
9839;BME280;4958;48.150;11.506;2022-10-14T01:38:00;95812.03;;;14.25;100.00
9839;BME280;4958;48.150;11.506;2022-10-14T01:40:34;95810.47;;;14.31;100.00
9839;BME280;4958;48.150;11.506;2022-10-14T01:43:03;95801.13;;;14.36;100.00
9839;BME280;4958;48.150;11.506;2022-10-14T01:45:34;95808.06;;;14.29;100.00
9839;BME280;4958;48.150;11.506;2022-10-14T01:48:02;95803.69;;;14.23;100.00
9839;BME280;4958;48.150;11.506;2022-10-14T01:50:30;95803.84;;;14.15;100.00
9839;BME280;4958;48.150;11.506;2022-10-14T01:53:02;95804.00;;;14.07;100.00
9839;BME280;4958;48.150;11.506;2022-10-14T01:55:33;95803.59;;;14.03;100.00
9839;BME280;4958;48.150;11.506;2022-10-14T01:58:02;95800.22;;;14.03;100.00
9839;BME280;4958;48.150;11.506;2022-10-14T02:00:29;95808.16;;;14.01;100.00
9839;BME280;4958;48.150;11.506;2022-10-14T02:02:57;95804.97;;;13.99;100.00
9839;BME280;4958;48.150;11.506;2022-10-14T02:05:28;95810.16;;;14.06;100.00
9839;BME280;4958;48.150;11.506;2022-10-14T02:08:03;95801.59;;;14.05;100.00
9839;BME280;4958;48.150;11.506;2022-10-14T02:10:44;95807.38;;;14.01;100.00
9839;BME280;4958;48.150;11.506;2022-10-14T02:13:22;95805.38;;;14.03;100.00
9839;BME280;4958;48.150;11.506;2022-10-14T02:16:01;95808.59;;;14.11;100.00
9839;BME280;4958;48.150;11.506;2022-10-14T02:18:37;95816.38;;;14.11;100.00
9839;BME280;4958;48.150;11.506;2022-10-14T02:21:10;95813.59;;;14.13;100.00
9839;BME280;4958;48.150;11.506;2022-10-14T02:23:41;95816.19;;;14.13;100.00
9839;BME280;4958;48.150;11.506;2022-10-14T02:26:11;95811.00;;;14.13;100.00
9839;BME280;4958;48.150;11.506;2022-10-14T02:28:39;95815.84;;;14.23;100.00
9839;BME280;4958;48.150;11.506;2022-10-14T02:31:10;95815.22;;;14.21;100.00
9839;BME280;4958;48.150;11.506;2022-10-14T02:33:41;95818.81;;;14.26;100.00
9839;BME280;4958;48.150;11.506;2022-10-14T02:36:09;95819.81;;;14.25;100.00
9839;BME280;4958;48.150;11.506;2022-10-14T02:38:38;95818.44;;;14.23;100.00
9839;BME280;4958;48.150;11.506;2022-10-14T02:41:08;95816.03;;;14.21;100.00
9839;BME280;4958;48.150;11.506;2022-10-14T02:43:37;95813.25;;;14.23;100.00
9839;BME280;4958;48.150;11.506;2022-10-14T02:46:04;95819.63;;;14.27;100.00
9839;BME280;4958;48.150;11.506;2022-10-14T02:48:31;95819.63;;;14.27;100.00
9839;BME280;4958;48.150;11.506;2022-10-14T02:50:59;95818.63;;;14.28;100.00
9839;BME280;4958;48.150;11.506;2022-10-14T02:53:26;95820.03;;;14.24;100.00
9839;BME280;4958;48.150;11.506;2022-10-14T02:55:52;95812.84;;;14.26;100.00
9839;BME280;4958;48.150;11.506;2022-10-14T02:58:18;95817.63;;;14.29;100.00
9839;BME280;4958;48.150;11.506;2022-10-14T03:00:47;95816.22;;;14.26;100.00
9839;BME280;4958;48.150;11.506;2022-10-14T03:03:13;95820.22;;;14.22;100.00
9839;BME280;4958;48.150;11.506;2022-10-14T03:05:41;95821.00;;;14.23;100.00
9839;BME280;4958;48.150;11.506;2022-10-14T03:08:09;95824.59;;;14.22;100.00
9839;BME280;4958;48.150;11.506;2022-10-14T03:10:36;95820.41;;;14.27;100.00
9839;BME280;4958;48.150;11.506;2022-10-14T03:13:02;95815.03;;;14.29;100.00
9839;BME280;4958;48.150;11.506;2022-10-14T03:15:29;95810.28;;;14.32;100.00
9839;BME280;4958;48.150;11.506;2022-10-14T03:17:55;95810.69;;;14.36;100.00
9839;BME280;4958;48.150;11.506;2022-10-14T03:20:22;95814.84;;;14.30;100.00
9839;BME280;4958;48.150;11.506;2022-10-14T03:22:48;95811.47;;;14.30;100.00
9839;BME280;4958;48.150;11.506;2022-10-14T03:25:16;95813.25;;;14.29;100.00
9839;BME280;4958;48.150;11.506;2022-10-14T03:27:43;95807.88;;;14.31;100.00
9839;BME280;4958;48.150;11.506;2022-10-14T03:30:10;95806.84;;;14.25;100.00
9839;BME280;4958;48.150;11.506;2022-10-14T03:32:37;95809.44;;;14.25;100.00
9839;BME280;4958;48.150;11.506;2022-10-14T03:35:04;95811.84;;;14.27;100.00
9839;BME280;4958;48.150;11.506;2022-10-14T03:37:30;95816.03;;;14.28;100.00
9839;BME280;4958;48.150;11.506;2022-10-14T03:39:57;95818.63;;;14.28;100.00
9839;BME280;4958;48.150;11.506;2022-10-14T03:42:25;95813.84;;;14.31;100.00
9839;BME280;4958;48.150;11.506;2022-10-14T03:44:51;95810.06;;;14.27;100.00
9839;BME280;4958;48.150;11.506;2022-10-14T03:47:17;95813.84;;;14.31;100.00
9839;BME280;4958;48.150;11.506;2022-10-14T03:49:44;95809.47;;;14.32;100.00
9839;BME280;4958;48.150;11.506;2022-10-14T03:52:10;95801.31;;;14.35;100.00
9839;BME280;4958;48.150;11.506;2022-10-14T03:54:37;95810.69;;;14.36;100.00
9839;BME280;4958;48.150;11.506;2022-10-14T03:57:03;95797.19;;;14.40;100.00
9839;BME280;4958;48.150;11.506;2022-10-14T03:59:31;95799.38;;;14.43;100.00
9839;BME280;4958;48.150;11.506;2022-10-14T04:01:57;95798.59;;;14.43;100.00
9839;BME280;4958;48.150;11.506;2022-10-14T04:04:24;95797.59;;;14.44;100.00
9839;BME280;4958;48.150;11.506;2022-10-14T04:06:50;95794.41;;;14.42;100.00
9839;BME280;4958;48.150;11.506;2022-10-14T04:09:17;95791.81;;;14.42;100.00
9839;BME280;4958;48.150;11.506;2022-10-14T04:11:43;95789.63;;;14.45;100.00
9839;BME280;4958;48.150;11.506;2022-10-14T04:14:10;95788.44;;;14.48;100.00
9839;BME280;4958;48.150;11.506;2022-10-14T04:16:38;95782.66;;;14.46;100.00
9839;BME280;4958;48.150;11.506;2022-10-14T04:19:04;95781.66;;;14.40;100.00
9839;BME280;4958;48.150;11.506;2022-10-14T04:21:31;95785.66;;;14.43;100.00
9839;BME280;4958;48.150;11.506;2022-10-14T04:23:57;95782.25;;;14.42;100.00
9839;BME280;4958;48.150;11.506;2022-10-14T04:26:24;95786.22;;;14.45;99.35
9839;BME280;4958;48.150;11.506;2022-10-14T04:28:50;95779.88;;;14.41;99.89
9839;BME280;4958;48.150;11.506;2022-10-14T04:31:17;95780.41;;;14.36;100.00
9839;BME280;4958;48.150;11.506;2022-10-14T04:33:45;95775.03;;;14.38;99.91
9839;BME280;4958;48.150;11.506;2022-10-14T04:36:11;95767.88;;;14.40;99.72
9839;BME280;4958;48.150;11.506;2022-10-14T04:38:37;95774.25;;;14.44;99.41
9839;BME280;4958;48.150;11.506;2022-10-14T04:41:04;95771.91;;;14.42;99.25
9839;BME280;4958;48.150;11.506;2022-10-14T04:43:31;95776.81;;;14.37;100.00
9839;BME280;4958;48.150;11.506;2022-10-14T04:45:57;95770.47;;;14.40;99.61
9839;BME280;4958;48.150;11.506;2022-10-14T04:48:24;95760.94;;;14.40;99.34
9839;BME280;4958;48.150;11.506;2022-10-14T04:50:52;95752.75;;;14.43;99.14
9839;BME280;4958;48.150;11.506;2022-10-14T04:53:19;95757.16;;;14.43;99.25
9839;BME280;4958;48.150;11.506;2022-10-14T04:55:46;95753.16;;;14.40;99.27
9839;BME280;4958;48.150;11.506;2022-10-14T04:58:14;95755.31;;;14.37;98.96
9839;BME280;4958;48.150;11.506;2022-10-14T05:00:41;95755.31;;;14.37;98.79
9839;BME280;4958;48.150;11.506;2022-10-14T05:03:09;95747.72;;;14.35;98.50
9839;BME280;4958;48.150;11.506;2022-10-14T05:05:36;95743.34;;;14.36;98.94
9839;BME280;4958;48.150;11.506;2022-10-14T05:08:04;95753.50;;;14.37;98.83
9839;BME280;4958;48.150;11.506;2022-10-14T05:10:31;95739.22;;;14.41;98.21
9839;BME280;4958;48.150;11.506;2022-10-14T05:12:58;95740.56;;;14.37;98.78
9839;BME280;4958;48.150;11.506;2022-10-14T05:15:24;95741.13;;;14.33;98.35
9839;BME280;4958;48.150;11.506;2022-10-14T05:17:51;95734.59;;;14.37;98.22
9839;BME280;4958;48.150;11.506;2022-10-14T05:20:17;95732.78;;;14.37;98.90
9839;BME280;4958;48.150;11.506;2022-10-14T05:22:47;95741.00;;;14.41;98.48
9839;BME280;4958;48.150;11.506;2022-10-14T05:25:15;95745.78;;;14.44;98.76
9839;BME280;4958;48.150;11.506;2022-10-14T05:27:41;95742.59;;;14.42;98.32
9839;BME280;4958;48.150;11.506;2022-10-14T05:30:09;95739.56;;;14.38;98.13
9839;BME280;4958;48.150;11.506;2022-10-14T05:32:35;95735.81;;;14.41;98.27
9839;BME280;4958;48.150;11.506;2022-10-14T05:35:02;95733.03;;;14.42;99.24
9839;BME280;4958;48.150;11.506;2022-10-14T05:37:29;95733.41;;;14.39;99.08
9839;BME280;4958;48.150;11.506;2022-10-14T05:39:55;95729.41;;;14.37;100.00
9839;BME280;4958;48.150;11.506;2022-10-14T05:42:23;95732.78;;;14.37;100.00
9839;BME280;4958;48.150;11.506;2022-10-14T05:44:50;95730.81;;;14.39;99.55
9839;BME280;4958;48.150;11.506;2022-10-14T05:47:16;95737.19;;;14.43;99.36
9839;BME280;4958;48.150;11.506;2022-10-14T05:49:43;95737.19;;;14.43;98.90
9839;BME280;4958;48.150;11.506;2022-10-14T05:52:09;95733.03;;;14.42;98.74
9839;BME280;4958;48.150;11.506;2022-10-14T05:54:35;95724.03;;;14.38;98.62
9839;BME280;4958;48.150;11.506;2022-10-14T05:57:02;95725.41;;;14.34;98.58
9839;BME280;4958;48.150;11.506;2022-10-14T05:59:30;95725.78;;;14.31;99.47
9839;BME280;4958;48.150;11.506;2022-10-14T06:01:59;95728.00;;;14.34;99.66
9839;BME280;4958;48.150;11.506;2022-10-14T06:04:28;95724.22;;;14.37;99.21
9839;BME280;4958;48.150;11.506;2022-10-14T06:06:54;95724.47;;;14.42;98.61
9839;BME280;4958;48.150;11.506;2022-10-14T06:09:21;95720.28;;;14.41;98.20
9839;BME280;4958;48.150;11.506;2022-10-14T06:11:47;95724.47;;;14.42;98.27
9839;BME280;4958;48.150;11.506;2022-10-14T06:14:14;95719.28;;;14.42;98.13
9839;BME280;4958;48.150;11.506;2022-10-14T06:16:42;95727.41;;;14.39;98.09
9839;BME280;4958;48.150;11.506;2022-10-14T06:19:08;95719.47;;;14.40;97.98
9839;BME280;4958;48.150;11.506;2022-10-14T06:21:35;95714.91;;;14.42;98.28
9839;BME280;4958;48.150;11.506;2022-10-14T06:24:04;95711.91;;;14.45;98.15
9839;BME280;4958;48.150;11.506;2022-10-14T06:26:33;95716.69;;;14.48;97.53
9839;BME280;4958;48.150;11.506;2022-10-14T06:29:01;95716.50;;;14.50;97.58
9839;BME280;4958;48.150;11.506;2022-10-14T06:31:27;95715.09;;;14.47;96.94
9839;BME280;4958;48.150;11.506;2022-10-14T06:33:58;95712.69;;;14.46;97.31
9839;BME280;4958;48.150;11.506;2022-10-14T06:36:25;95721.66;;;14.43;97.86
9839;BME280;4958;48.150;11.506;2022-10-14T06:38:51;95721.88;;;14.48;98.08
9839;BME280;4958;48.150;11.506;2022-10-14T06:41:17;95720.47;;;14.52;97.74
9839;BME280;4958;48.150;11.506;2022-10-14T06:43:44;95724.69;;;14.54;97.45
9839;BME280;4958;48.150;11.506;2022-10-14T06:46:10;95729.06;;;14.53;97.76
9839;BME280;4958;48.150;11.506;2022-10-14T06:48:37;95723.28;;;14.58;97.84
9839;BME280;4958;48.150;11.506;2022-10-14T06:51:05;95726.88;;;14.63;97.95
9839;BME280;4958;48.150;11.506;2022-10-14T06:53:32;95725.28;;;14.69;97.01
9839;BME280;4958;48.150;11.506;2022-10-14T06:56:00;95732.06;;;14.70;96.30
9839;BME280;4958;48.150;11.506;2022-10-14T06:58:27;95719.50;;;14.67;96.44
9839;BME280;4958;48.150;11.506;2022-10-14T07:00:54;95715.31;;;14.66;96.14
9839;BME280;4958;48.150;11.506;2022-10-14T07:03:21;95722.91;;;14.74;95.57
9839;BME280;4958;48.150;11.506;2022-10-14T07:05:50;95719.72;;;14.78;95.11
9839;BME280;4958;48.150;11.506;2022-10-14T07:08:18;95722.50;;;14.97;94.65
9839;BME280;4958;48.150;11.506;2022-10-14T07:10:45;95717.28;;;15.36;93.74
9839;BME280;4958;48.150;11.506;2022-10-14T07:13:12;95715.56;;;15.81;91.04
9839;BME280;4958;48.150;11.506;2022-10-14T07:15:38;95701.94;;;16.69;85.77
9839;BME280;4958;48.150;11.506;2022-10-14T07:18:07;95708.03;;;17.31;82.75
9839;BME280;4958;48.150;11.506;2022-10-14T07:20:34;95700.72;;;17.57;78.28
9839;BME280;4958;48.150;11.506;2022-10-14T07:23:00;95695.66;;;17.99;77.32
9839;BME280;4958;48.150;11.506;2022-10-14T07:25:28;95697.53;;;17.92;75.68
9839;BME280;4958;48.150;11.506;2022-10-14T07:27:55;95688.44;;;18.01;74.88
9839;BME280;4958;48.150;11.506;2022-10-14T07:30:21;95692.41;;;18.04;75.36
9839;BME280;4958;48.150;11.506;2022-10-14T07:32:47;95691.38;;;18.35;74.49
9839;BME280;4958;48.150;11.506;2022-10-14T07:35:14;95692.00;;;18.18;72.81
9839;BME280;4958;48.150;11.506;2022-10-14T07:37:41;95694.94;;;17.92;74.34
9839;BME280;4958;48.150;11.506;2022-10-14T07:40:08;95697.50;;;17.80;74.21
9839;BME280;4958;48.150;11.506;2022-10-14T07:42:36;95692.91;;;18.54;72.26
9839;BME280;4958;48.150;11.506;2022-10-14T07:45:04;95704.38;;;19.18;70.55
9839;BME280;4958;48.150;11.506;2022-10-14T07:47:31;95696.41;;;19.13;66.42
9839;BME280;4958;48.150;11.506;2022-10-14T07:49:58;95700.50;;;19.09;68.40
9839;BME280;4958;48.150;11.506;2022-10-14T07:52:25;95701.13;;;18.69;68.27
9839;BME280;4958;48.150;11.506;2022-10-14T07:54:51;95705.47;;;18.45;69.97
9839;BME280;4958;48.150;11.506;2022-10-14T07:57:18;95698.00;;;19.02;69.09
9839;BME280;4958;48.150;11.506;2022-10-14T07:59:48;95708.22;;;19.50;67.12
9839;BME280;4958;48.150;11.506;2022-10-14T08:02:16;95707.97;;;19.63;67.23
9839;BME280;4958;48.150;11.506;2022-10-14T08:04:43;95706.81;;;19.83;66.35
9839;BME280;4958;48.150;11.506;2022-10-14T08:07:10;95709.22;;;19.73;66.31
9839;BME280;4958;48.150;11.506;2022-10-14T08:09:38;95706.66;;;20.01;64.60
9839;BME280;4958;48.150;11.506;2022-10-14T08:12:05;95693.56;;;20.41;63.37
9839;BME280;4958;48.150;11.506;2022-10-14T08:14:31;95701.72;;;20.45;60.75
9839;BME280;4958;48.150;11.506;2022-10-14T08:16:59;95689.78;;;20.65;60.23
9839;BME280;4958;48.150;11.506;2022-10-14T08:19:26;95694.41;;;20.75;58.89
9839;BME280;4958;48.150;11.506;2022-10-14T08:21:52;95686.56;;;20.75;58.85
9839;BME280;4958;48.150;11.506;2022-10-14T08:24:19;95681.09;;;20.77;57.44
9839;BME280;4958;48.150;11.506;2022-10-14T08:26:50;95691.31;;;20.95;57.87
9839;BME280;4958;48.150;11.506;2022-10-14T08:29:17;95680.75;;;20.90;58.36
9839;BME280;4958;48.150;11.506;2022-10-14T08:31:43;95692.59;;;20.92;59.00
9839;BME280;4958;48.150;11.506;2022-10-14T08:34:11;95691.06;;;20.80;56.79
9839;BME280;4958;48.150;11.506;2022-10-14T08:36:38;95686.16;;;20.66;56.92
9839;BME280;4958;48.150;11.506;2022-10-14T08:39:05;95680.53;;;20.58;56.55
9839;BME280;4958;48.150;11.506;2022-10-14T08:41:43;95691.31;;;20.95;55.47
9839;BME280;4958;48.150;11.506;2022-10-14T08:44:17;95696.00;;;21.26;55.58
9839;BME280;4958;48.150;11.506;2022-10-14T08:46:49;95691.50;;;21.44;53.68
9839;BME280;4958;48.150;11.506;2022-10-14T08:49:22;95681.44;;;21.52;52.09
9839;BME280;4958;48.150;11.506;2022-10-14T08:51:52;95692.75;;;21.58;50.94
9839;BME280;4958;48.150;11.506;2022-10-14T08:54:28;95677.25;;;21.56;52.07
9839;BME280;4958;48.150;11.506;2022-10-14T08:56:57;95679.47;;;21.64;51.92
9839;BME280;4958;48.150;11.506;2022-10-14T08:59:25;95682.41;;;21.68;51.68
9839;BME280;4958;48.150;11.506;2022-10-14T09:01:56;95675.66;;;21.72;50.03
9839;BME280;4958;48.150;11.506;2022-10-14T09:04:25;95681.31;;;21.64;51.27
9839;BME280;4958;48.150;11.506;2022-10-14T09:06:53;95677.34;;;21.61;50.75
9839;BME280;4958;48.150;11.506;2022-10-14T09:09:23;95671.03;;;21.41;49.81
9839;BME280;4958;48.150;11.506;2022-10-14T09:11:55;95670.16;;;20.96;50.57
9839;BME280;4958;48.150;11.506;2022-10-14T09:14:25;95670.84;;;20.75;52.05
9839;BME280;4958;48.150;11.506;2022-10-14T09:16:59;95669.06;;;20.47;50.69
9839;BME280;4958;48.150;11.506;2022-10-14T09:19:32;95677.09;;;20.29;51.84
9839;BME280;4958;48.150;11.506;2022-10-14T09:22:00;95672.72;;;20.18;52.51
9839;BME280;4958;48.150;11.506;2022-10-14T09:24:30;95680.44;;;19.96;52.63
9839;BME280;4958;48.150;11.506;2022-10-14T09:27:00;95673.94;;;19.98;53.60
9839;BME280;4958;48.150;11.506;2022-10-14T09:29:30;95672.59;;;19.96;53.39
9839;BME280;4958;48.150;11.506;2022-10-14T09:32:00;95673.38;;;19.96;53.68
9839;BME280;4958;48.150;11.506;2022-10-14T09:34:32;95668.53;;;20.17;52.88
9839;BME280;4958;48.150;11.506;2022-10-14T09:37:14;95668.94;;;20.25;51.75
9839;BME280;4958;48.150;11.506;2022-10-14T09:39:43;95657.97;;;20.40;51.77
9839;BME280;4958;48.150;11.506;2022-10-14T09:42:14;95659.19;;;20.49;50.09
9839;BME280;4958;48.150;11.506;2022-10-14T09:44:43;95654.94;;;20.31;48.97
9839;BME280;4958;48.150;11.506;2022-10-14T09:47:11;95659.13;;;20.32;50.55
9839;BME280;4958;48.150;11.506;2022-10-14T09:49:41;95658.16;;;20.50;51.24
9839;BME280;4958;48.150;11.506;2022-10-14T09:52:20;95644.38;;;20.55;51.25
9839;BME280;4958;48.150;11.506;2022-10-14T09:54:52;95650.78;;;20.64;50.82
9839;BME280;4958;48.150;11.506;2022-10-14T09:57:19;95647.13;;;20.48;49.21
9839;BME280;4958;48.150;11.506;2022-10-14T09:59:49;95643.56;;;20.38;50.80
9839;BME280;4958;48.150;11.506;2022-10-14T10:02:21;95648.19;;;20.35;51.69
9839;BME280;4958;48.150;11.506;2022-10-14T10:04:49;95647.19;;;20.37;53.63
9839;BME280;4958;48.150;11.506;2022-10-14T10:07:25;95648.66;;;20.32;52.13
9839;BME280;4958;48.150;11.506;2022-10-14T10:09:54;95652.22;;;20.26;52.45
9839;BME280;4958;48.150;11.506;2022-10-14T10:12:29;95639.22;;;20.15;49.58
9839;BME280;4958;48.150;11.506;2022-10-14T10:14:58;95642.09;;;20.01;49.96
9839;BME280;4958;48.150;11.506;2022-10-14T10:17:25;95640.38;;;20.07;50.81
9839;BME280;4958;48.150;11.506;2022-10-14T10:20:14;95643.16;;;20.00;49.88
9839;BME280;4958;48.150;11.506;2022-10-14T10:22:43;95646.41;;;19.79;50.00
9839;BME280;4958;48.150;11.506;2022-10-14T10:25:22;95645.78;;;19.89;50.53
9839;BME280;4958;48.150;11.506;2022-10-14T10:27:51;95635.09;;;19.90;49.00
9839;BME280;4958;48.150;11.506;2022-10-14T10:30:21;95636.22;;;19.94;51.11
9839;BME280;4958;48.150;11.506;2022-10-14T10:32:55;95630.59;;;20.02;51.07
9839;BME280;4958;48.150;11.506;2022-10-14T10:35:28;95624.69;;;20.07;49.17
9839;BME280;4958;48.150;11.506;2022-10-14T10:38:05;95622.63;;;20.09;48.82
9839;BME280;4958;48.150;11.506;2022-10-14T10:40:38;95612.41;;;20.08;50.74
9839;BME280;4958;48.150;11.506;2022-10-14T10:43:26;95612.50;;;20.13;50.83
9839;BME280;4958;48.150;11.506;2022-10-14T10:46:08;95606.81;;;20.16;50.43
9839;BME280;4958;48.150;11.506;2022-10-14T10:48:41;95617.16;;;20.11;51.96
9839;BME280;4958;48.150;11.506;2022-10-14T10:51:13;95602.34;;;19.99;50.48
9839;BME280;4958;48.150;11.506;2022-10-14T10:53:47;95610.19;;;19.99;50.44
9839;BME280;4958;48.150;11.506;2022-10-14T10:56:21;95605.75;;;20.00;51.35
9839;BME280;4958;48.150;11.506;2022-10-14T10:59:00;95605.44;;;20.13;50.85
9839;BME280;4958;48.150;11.506;2022-10-14T11:01:38;95601.41;;;20.22;51.20
9839;BME280;4958;48.150;11.506;2022-10-14T11:04:20;95594.44;;;20.28;51.09
9839;BME280;4958;48.150;11.506;2022-10-14T11:07:00;95594.44;;;20.28;52.71
9839;BME280;4958;48.150;11.506;2022-10-14T11:09:52;95591.44;;;20.19;50.25
9839;BME280;4958;48.150;11.506;2022-10-14T11:12:50;95594.66;;;19.93;50.87
9839;BME280;4958;48.150;11.506;2022-10-14T11:15:24;95595.09;;;19.90;50.95
9839;BME280;4958;48.150;11.506;2022-10-14T11:17:59;95579.50;;;19.78;50.91
9839;BME280;4958;48.150;11.506;2022-10-14T11:20:32;95577.84;;;19.89;51.34
9839;BME280;4958;48.150;11.506;2022-10-14T11:23:16;95566.56;;;20.00;51.33
9839;BME280;4958;48.150;11.506;2022-10-14T11:25:49;95567.19;;;20.07;51.15
9839;BME280;4958;48.150;11.506;2022-10-14T11:28:23;95565.34;;;20.08;50.58
9839;BME280;4958;48.150;11.506;2022-10-14T11:30:59;95560.13;;;20.08;50.98
9839;BME280;4958;48.150;11.506;2022-10-14T11:33:39;95558.88;;;20.10;51.79
9839;BME280;4958;48.150;11.506;2022-10-14T11:36:20;95546.97;;;20.02;51.80
9839;BME280;4958;48.150;11.506;2022-10-14T11:38:59;95549.75;;;19.96;52.17
9839;BME280;4958;48.150;11.506;2022-10-14T11:41:35;95537.94;;;19.93;51.89
9839;BME280;4958;48.150;11.506;2022-10-14T11:44:10;95532.47;;;19.95;52.14
9839;BME280;4958;48.150;11.506;2022-10-14T11:46:43;95533.50;;;19.94;51.95
9839;BME280;4958;48.150;11.506;2022-10-14T11:49:16;95532.16;;;19.91;52.38
9839;BME280;4958;48.150;11.506;2022-10-14T11:51:48;95528.59;;;19.81;52.26
9839;BME280;4958;48.150;11.506;2022-10-14T11:54:24;95527.47;;;19.77;52.73
9839;BME280;4958;48.150;11.506;2022-10-14T11:56:56;95528.50;;;19.76;52.40
9839;BME280;4958;48.150;11.506;2022-10-14T11:59:33;95527.94;;;19.74;53.66
9839;BME280;4958;48.150;11.506;2022-10-14T12:02:13;95523.28;;;19.76;52.88
9839;BME280;4958;48.150;11.506;2022-10-14T12:04:44;95524.88;;;19.65;51.88
9839;BME280;4958;48.150;11.506;2022-10-14T12:07:17;95523.16;;;19.71;53.01
9839;BME280;4958;48.150;11.506;2022-10-14T12:09:51;95523.88;;;19.66;52.84
9839;BME280;4958;48.150;11.506;2022-10-14T12:12:21;95530.34;;;19.63;52.35
9839;BME280;4958;48.150;11.506;2022-10-14T12:14:53;95523.31;;;19.64;54.06
9839;BME280;4958;48.150;11.506;2022-10-14T12:17:24;95521.72;;;19.63;53.76
9839;BME280;4958;48.150;11.506;2022-10-14T12:19:51;95518.75;;;19.71;54.08
9839;BME280;4958;48.150;11.506;2022-10-14T12:22:20;95514.78;;;19.69;54.86
9839;BME280;4958;48.150;11.506;2022-10-14T12:24:52;95511.59;;;19.66;54.75
9839;BME280;4958;48.150;11.506;2022-10-14T12:27:20;95506.84;;;19.63;54.10
9839;BME280;4958;48.150;11.506;2022-10-14T12:29:49;95499.63;;;19.54;53.24
9839;BME280;4958;48.150;11.506;2022-10-14T12:32:19;95497.19;;;19.36;53.71
9839;BME280;4958;48.150;11.506;2022-10-14T12:34:49;95504.13;;;19.30;53.86
9839;BME280;4958;48.150;11.506;2022-10-14T12:37:39;95491.06;;;19.30;54.15
9839;BME280;4958;48.150;11.506;2022-10-14T12:40:32;95498.63;;;19.15;54.20
9839;BME280;4958;48.150;11.506;2022-10-14T12:43:03;95487.59;;;19.13;54.46
9839;BME280;4958;48.150;11.506;2022-10-14T12:45:32;95489.53;;;19.17;54.81
9839;BME280;4958;48.150;11.506;2022-10-14T12:48:05;95490.78;;;19.15;55.21
9839;BME280;4958;48.150;11.506;2022-10-14T12:50:35;95489.09;;;19.09;56.56
9839;BME280;4958;48.150;11.506;2022-10-14T12:53:05;95484.66;;;19.09;55.92
9839;BME280;4958;48.150;11.506;2022-10-14T12:55:45;95493.22;;;19.05;55.60
9839;BME280;4958;48.150;11.506;2022-10-14T12:58:22;95478.88;;;19.07;55.75
9839;BME280;4958;48.150;11.506;2022-10-14T13:00:54;95486.28;;;18.98;55.92
9839;BME280;4958;48.150;11.506;2022-10-14T13:03:23;95482.22;;;18.91;55.88
9839;BME280;4958;48.150;11.506;2022-10-14T13:05:50;95481.34;;;18.85;56.12
9839;BME280;4958;48.150;11.506;2022-10-14T13:08:26;95485.31;;;18.76;55.32
9839;BME280;4958;48.150;11.506;2022-10-14T13:11:09;95484.06;;;18.79;55.94
9839;BME280;4958;48.150;11.506;2022-10-14T13:13:47;95486.44;;;18.80;55.91
9839;BME280;4958;48.150;11.506;2022-10-14T13:16:55;95486.22;;;18.82;56.30
9839;BME280;4958;48.150;11.506;2022-10-14T13:19:42;95475.06;;;18.86;56.03
9839;BME280;4958;48.150;11.506;2022-10-14T13:22:38;95478.47;;;18.87;55.96
9839;BME280;4958;48.150;11.506;2022-10-14T13:25:13;95469.84;;;18.86;55.46